Time;durP1;ratioP1;P1;durP2;ratioP2;P2;SDS_P1;SDS_P2;PMS_P1;PMS_P2;Temp;Humidity;BMP_temperature;BMP_pressure;BME280_temperature;BME280_humidity;BME280_pressure;Samples;Min_cycle;Max_cycle;Signal;HPM_P1;HPM_P2
2024/01/09 00:00:24;;;;;;;;;;;;;;;;;;5073090;28;20276;-72
2024/01/09 00:02:50;;;;;;;;;;;;;;;;;;5072941;28;19915;-72
2024/01/09 00:05:16;;;;;;;;;;;;;;;;;;5088689;28;19916;-72
2024/01/09 00:07:42;;;;;;;;;;;;;;;;;;5072895;28;19908;-72
2024/01/09 00:10:09;;;;;;;;;;;;;;;;;;5073241;28;19927;-73
2024/01/09 00:12:35;;;;;;;;;;;;;;;;;;5072774;28;19909;-72
2024/01/09 00:15:01;;;;;;;;;;;;;;;;;;5073309;28;19921;-72
2024/01/09 00:17:27;;;;;;;;;;;;;;;;;;5072683;28;19909;-73
2024/01/09 00:19:53;;;;;;;;;;;;;;;;;;5088441;28;19961;-73
2024/01/09 00:22:19;;;;;;;;;;;;;;;;;;5077863;28;19913;-72
2024/01/09 00:24:46;;;;;;;;;;;;;;;;;;5079242;28;19909;-73
2024/01/09 00:27:12;;;;;;;;;;;;;;;;;;5079303;28;19909;-72
2024/01/09 00:29:38;;;;;;;;;;;;;;;;;;5079270;28;19908;-72
2024/01/09 00:32:04;;;;;;;;;;;;;;;;;;5079115;28;19917;-72
2024/01/09 00:34:30;;;;;;;;;;;;;;;;;;5079220;28;19961;-72
2024/01/09 00:36:56;;;;;;;;;;;;;;;;;;5079622;28;19917;-73
2024/01/09 00:39:23;;;;;;;;;;;;;;;;;;5079630;28;19912;-72
2024/01/09 00:41:49;;;;;;;;;;;;;;;;;;5079440;28;19908;-72
2024/01/09 00:44:15;;;;;;;;;;;;;;;;;;5095050;28;19912;-72
2024/01/09 00:46:41;;;;;;;;;;;;;;;;;;5078778;28;19908;-72
2024/01/09 00:49:07;;;;;;;;;;;;;;;;;;5094848;28;19908;-72
2024/01/09 00:51:34;;;;;;;;;;;;;;;;;;5079085;28;19938;-72
2024/01/09 00:54:00;;;;;;;;;;;;;;;;;;5079487;28;19909;-72
2024/01/09 00:56:26;;;;;;;;;;;;;;;;;;5079387;28;19928;-72
2024/01/09 00:58:52;;;;;;;;;;;;;;;;;;5079161;28;19909;-72
2024/01/09 01:01:18;;;;;;;;;;;;;;;;;;5078717;28;19908;-72
2024/01/09 01:03:44;;;;;;;;;;;;;;;;;;5095128;28;19912;-72
2024/01/09 01:06:10;;;;;;;;;;;;;;;;;;5094825;28;20376;-72
2024/01/09 01:08:37;;;;;;;;;;;;;;;;;;5078638;28;19958;-72
2024/01/09 01:11:03;;;;;;;;;;;;;;;;;;5079305;28;19908;-72
2024/01/09 01:13:30;;;;;;;;;;;;;;;;;;5079083;28;19922;-72
2024/01/09 01:15:56;;;;;;;;;;;;;;;;;;5078539;28;19923;-72
2024/01/09 01:18:22;;;;;;;;;;;;;;;;;;5094900;28;19908;-73
2024/01/09 01:20:48;;;;;;;;;;;;;;;;;;5078797;28;20388;-72
2024/01/09 01:23:14;;;;;;;;;;;;;;;;;;5094883;28;20284;-72
2024/01/09 01:25:40;;;;;;;;;;;;;;;;;;5079331;28;19912;-73
2024/01/09 01:28:07;;;;;;;;;;;;;;;;;;5078827;28;19913;-73
2024/01/09 01:30:33;;;;;;;;;;;;;;;;;;5078489;28;19918;-72
2024/01/09 01:32:59;;;;;;;;;;;;;;;;;;5076524;28;19908;-73
2024/01/09 01:35:25;;;;;;;;;;;;;;;;;;5075372;28;19912;-73
2024/01/09 01:37:51;;;;;;;;;;;;;;;;;;5057915;28;20365;-72
2024/01/09 01:40:17;;;;;;;;;;;;;;;;;;5075652;28;19909;-72
2024/01/09 01:42:44;;;;;;;;;;;;;;;;;;5075702;28;20296;-72
2024/01/09 01:45:10;;;;;;;;;;;;;;;;;;5074992;28;19915;-72
2024/01/09 01:47:36;;;;;;;;;;;;;;;;;;5057639;28;19916;-72
2024/01/09 01:50:02;;;;;;;;;;;;;;;;;;5075253;28;19909;-72
2024/01/09 01:52:28;;;;;;;;;;;;;;;;;;5075263;28;19915;-72
2024/01/09 01:54:54;;;;;;;;;;;;;;;;;;5075162;28;20372;-72
2024/01/09 01:57:21;;;;;;;;;;;;;;;;;;5075214;28;19909;-72
2024/01/09 01:59:47;;;;;;;;;;;;;;;;;;5057573;28;19909;-72
2024/01/09 02:02:13;;;;;;;;;;;;;;;;;;5075298;28;19957;-72
2024/01/09 02:04:40;;;;;;;;;;;;;;;;;;5075050;28;19913;-72
2024/01/09 02:07:07;;;;;;;;;;;;;;;;;;5075258;28;20357;-72
2024/01/09 02:09:33;;;;;;;;;;;;;;;;;;5074828;28;20411;-72
2024/01/09 02:11:59;;;;;;;;;;;;;;;;;;5074584;28;20300;-72
2024/01/09 02:14:25;;;;;;;;;;;;;;;;;;5090837;28;19908;-72
2024/01/09 02:16:51;;;;;;;;;;;;;;;;;;5074798;28;19916;-72
2024/01/09 02:19:17;;;;;;;;;;;;;;;;;;5074796;28;19913;-72
2024/01/09 02:21:44;;;;;;;;;;;;;;;;;;5090430;28;19919;-72
2024/01/09 02:24:10;;;;;;;;;;;;;;;;;;5074551;28;19908;-72
2024/01/09 02:26:36;;;;;;;;;;;;;;;;;;5074158;28;20304;-73
2024/01/09 02:29:02;;;;;;;;;;;;;;;;;;5074985;28;19977;-72
2024/01/09 02:31:28;;;;;;;;;;;;;;;;;;5074725;28;19908;-72
2024/01/09 02:33:54;;;;;;;;;;;;;;;;;;5074487;28;19913;-72
2024/01/09 02:36:21;;;;;;;;;;;;;;;;;;5074414;28;19916;-72
2024/01/09 02:38:47;;;;;;;;;;;;;;;;;;5074431;28;19912;-73
2024/01/09 02:41:13;;;;;;;;;;;;;;;;;;5074541;28;19909;-72
2024/01/09 02:43:39;;;;;;;;;;;;;;;;;;5074319;28;19908;-72
2024/01/09 02:46:05;;;;;;;;;;;;;;;;;;5074497;28;19908;-72
2024/01/09 02:48:31;;;;;;;;;;;;;;;;;;5074021;28;19909;-72
2024/01/09 02:50:57;;;;;;;;;;;;;;;;;;5074696;28;19908;-72
2024/01/09 02:53:24;;;;;;;;;;;;;;;;;;5074640;28;19953;-72
2024/01/09 02:55:50;;;;;;;;;;;;;;;;;;5073457;28;19920;-72
2024/01/09 02:58:16;;;;;;;;;;;;;;;;;;5074222;28;19957;-72
2024/01/09 03:00:42;;;;;;;;;;;;;;;;;;5074103;28;20365;-72
2024/01/09 03:03:08;;;;;;;;;;;;;;;;;;5074212;28;19909;-72
2024/01/09 03:05:34;;;;;;;;;;;;;;;;;;5074235;28;19908;-72
2024/01/09 03:08:01;;;;;;;;;;;;;;;;;;5073855;28;19920;-72
2024/01/09 03:10:27;;;;;;;;;;;;;;;;;;5073488;28;19919;-72
2024/01/09 03:12:53;;;;;;;;;;;;;;;;;;5073643;28;19912;-72
2024/01/09 03:15:19;;;;;;;;;;;;;;;;;;5089213;28;19912;-72
2024/01/09 03:17:45;;;;;;;;;;;;;;;;;;5073823;28;19908;-72
2024/01/09 03:20:11;;;;;;;;;;;;;;;;;;5073564;28;19927;-72
2024/01/09 03:22:38;;;;;;;;;;;;;;;;;;5073786;28;19915;-72
2024/01/09 03:25:04;;;;;;;;;;;;;;;;;;5073259;28;20358;-72
2024/01/09 03:27:30;;;;;;;;;;;;;;;;;;5073633;28;19918;-72
2024/01/09 03:29:57;;;;;;;;;;;;;;;;;;5073290;28;19916;-72
2024/01/09 03:32:23;;;;;;;;;;;;;;;;;;5073428;28;19909;-72
2024/01/09 03:34:49;;;;;;;;;;;;;;;;;;5073314;28;19913;-72
2024/01/09 03:37:15;;;;;;;;;;;;;;;;;;5055490;28;20370;-72
2024/01/09 03:39:41;;;;;;;;;;;;;;;;;;5073259;28;19908;-72
2024/01/09 03:42:07;;;;;;;;;;;;;;;;;;5073098;28;20288;-72
2024/01/09 03:44:34;;;;;;;;;;;;;;;;;;5073216;28;19909;-72
2024/01/09 03:47:00;;;;;;;;;;;;;;;;;;5073078;28;19917;-72
2024/01/09 03:49:26;;;;;;;;;;;;;;;;;;5073125;28;19909;-72
2024/01/09 03:51:53;;;;;;;;;;;;;;;;;;5073130;28;20369;-72
2024/01/09 03:54:19;;;;;;;;;;;;;;;;;;5072806;28;19908;-72
2024/01/09 03:56:45;;;;;;;;;;;;;;;;;;5072285;28;19916;-72
2024/01/09 03:59:11;;;;;;;;;;;;;;;;;;5072944;28;20358;-72
2024/01/09 04:01:37;;;;;;;;;;;;;;;;;;5073622;28;19912;-72
2024/01/09 04:04:04;;;;;;;;;;;;;;;;;;5073192;28;19919;-72
2024/01/09 04:06:30;;;;;;;;;;;;;;;;;;5072856;28;19954;-72
2024/01/09 04:08:56;;;;;;;;;;;;;;;;;;5072489;28;19940;-72
2024/01/09 04:11:22;;;;;;;;;;;;;;;;;;5072822;28;20304;-72
2024/01/09 04:13:48;;;;;;;;;;;;;;;;;;5073156;28;19909;-72
2024/01/09 04:16:14;;;;;;;;;;;;;;;;;;5072880;28;19916;-72
2024/01/09 04:18:41;;;;;;;;;;;;;;;;;;5072664;28;19909;-72
2024/01/09 04:21:07;;;;;;;;;;;;;;;;;;5072927;28;19912;-72
2024/01/09 04:23:33;;;;;;;;;;;;;;;;;;5072508;28;19908;-73
2024/01/09 04:25:59;;;;;;;;;;;;;;;;;;5072787;28;19909;-72
2024/01/09 04:28:25;;;;;;;;;;;;;;;;;;5073173;28;19909;-72
2024/01/09 04:30:53;;;;;;;;;;;;;;;;;;5072481;28;19954;-72
2024/01/09 04:33:19;;;;;;;;;;;;;;;;;;5088367;28;20373;-72
2024/01/09 04:35:45;;;;;;;;;;;;;;;;;;5072720;28;20308;-73
2024/01/09 04:38:12;;;;;;;;;;;;;;;;;;5072228;28;19919;-73
2024/01/09 04:40:38;;;;;;;;;;;;;;;;;;5072750;28;20369;-73
2024/01/09 04:43:04;;;;;;;;;;;;;;;;;;5072877;28;19915;-72
2024/01/09 04:45:30;;;;;;;;;;;;;;;;;;5054922;28;19909;-72
2024/01/09 04:47:56;;;;;;;;;;;;;;;;;;5054428;28;19957;-72
2024/01/09 04:50:23;;;;;;;;;;;;;;;;;;5088057;28;19977;-72
2024/01/09 04:52:49;;;;;;;;;;;;;;;;;;5072179;28;19912;-72
2024/01/09 04:55:15;;;;;;;;;;;;;;;;;;5087770;28;19921;-73
2024/01/09 04:57:42;;;;;;;;;;;;;;;;;;5072443;28;19909;-72
2024/01/09 05:00:08;;;;;;;;;;;;;;;;;;5073170;28;19915;-72
2024/01/09 05:02:34;;;;;;;;;;;;;;;;;;5088357;28;19949;-72
2024/01/09 05:05:00;;;;;;;;;;;;;;;;;;5072871;28;19909;-73
2024/01/09 05:07:26;;;;;;;;;;;;;;;;;;5072469;28;19958;-72
2024/01/09 05:09:52;;;;;;;;;;;;;;;;;;5075838;28;19920;-73
2024/01/09 05:12:19;;;;;;;;;;;;;;;;;;5076074;28;19919;-73
2024/01/09 05:14:45;;;;;;;;;;;;;;;;;;5076287;28;19915;-72
2024/01/09 05:17:11;;;;;;;;;;;;;;;;;;5091773;28;20270;-72
2024/01/09 05:19:37;;;;;;;;;;;;;;;;;;5091526;28;19915;-72
2024/01/09 05:22:03;;;;;;;;;;;;;;;;;;5075748;28;19953;-72
2024/01/09 05:24:30;;;;;;;;;;;;;;;;;;5075903;28;19914;-73
2024/01/09 05:26:56;;;;;;;;;;;;;;;;;;5075800;28;19915;-72
2024/01/09 05:29:22;;;;;;;;;;;;;;;;;;5075501;28;19913;-72
2024/01/09 05:31:48;;;;;;;;;;;;;;;;;;5075684;28;19967;-72
2024/01/09 05:34:14;;;;;;;;;;;;;;;;;;5075681;28;19909;-72
2024/01/09 05:36:40;;;;;;;;;;;;;;;;;;5075265;28;20379;-72
2024/01/09 05:39:07;;;;;;;;;;;;;;;;;;5075752;28;20408;-72
2024/01/09 05:41:34;;;;;;;;;;;;;;;;;;5075480;28;20388;-73
2024/01/09 05:44:01;;;;;;;;;;;;;;;;;;5075861;28;19912;-73
2024/01/09 05:46:27;;;;;;;;;;;;;;;;;;5075594;28;20295;-72
2024/01/09 05:48:53;;;;;;;;;;;;;;;;;;5075637;28;19908;-73
2024/01/09 05:51:19;;;;;;;;;;;;;;;;;;5075262;28;19908;-72
2024/01/09 05:53:47;;;;;;;;;;;;;;;;;;5075268;28;19909;-72
2024/01/09 05:56:13;;;;;;;;;;;;;;;;;;5075328;28;19923;-73
2024/01/09 05:58:39;;;;;;;;;;;;;;;;;;5075161;28;19908;-73
2024/01/09 06:01:05;;;;;;;;;;;;;;;;;;5075639;28;19915;-73
2024/01/09 06:03:31;;;;;;;;;;;;;;;;;;5075181;28;20294;-73
2024/01/09 06:05:58;;;;;;;;;;;;;;;;;;5075072;28;19912;-73
2024/01/09 06:08:24;;;;;;;;;;;;;;;;;;5090564;28;20412;-72
2024/01/09 06:10:50;;;;;;;;;;;;;;;;;;5075066;28;19913;-72
2024/01/09 06:13:16;;;;;;;;;;;;;;;;;;5075287;28;20314;-73
2024/01/09 06:15:43;;;;;;;;;;;;;;;;;;5074748;28;19916;-73
2024/01/09 06:18:09;;;;;;;;;;;;;;;;;;5074673;28;19913;-73
2024/01/09 06:20:35;;;;;;;;;;;;;;;;;;5074112;28;19912;-73
2024/01/09 06:23:02;;;;;;;;;;;;;;;;;;5074816;28;19912;-72
2024/01/09 06:25:28;;;;;;;;;;;;;;;;;;5074868;28;19909;-72
2024/01/09 06:27:54;;;;;;;;;;;;;;;;;;5074653;28;19908;-72
2024/01/09 06:30:20;;;;;;;;;;;;;;;;;;5074926;28;19909;-72
2024/01/09 06:32:46;;;;;;;;;;;;;;;;;;5056859;28;19919;-73
2024/01/09 06:35:12;;;;;;;;;;;;;;;;;;5074600;28;19912;-73
2024/01/09 06:37:39;;;;;;;;;;;;;;;;;;5074743;28;19923;-73
2024/01/09 06:40:08;;;;;;;;;;;;;;;;;;5075019;28;19909;-72
2024/01/09 06:42:34;;;;;;;;;;;;;;;;;;5074209;28;19958;-73
2024/01/09 06:45:00;;;;;;;;;;;;;;;;;;5074267;28;19908;-73
2024/01/09 06:47:26;;;;;;;;;;;;;;;;;;5073744;28;20276;-73
2024/01/09 06:49:53;;;;;;;;;;;;;;;;;;5074981;28;19930;-72
2024/01/09 06:52:19;;;;;;;;;;;;;;;;;;5074221;28;19909;-72
2024/01/09 06:54:45;;;;;;;;;;;;;;;;;;5074052;28;19919;-73
2024/01/09 06:57:11;;;;;;;;;;;;;;;;;;5055807;28;20344;-72
2024/01/09 06:59:37;;;;;;;;;;;;;;;;;;5074017;28;20266;-73
2024/01/09 07:02:03;;;;;;;;;;;;;;;;;;5073733;28;19915;-73
2024/01/09 07:04:29;;;;;;;;;;;;;;;;;;5073779;28;19912;-73
2024/01/09 07:06:56;;;;;;;;;;;;;;;;;;5074122;28;19915;-73
2024/01/09 07:09:22;;;;;;;;;;;;;;;;;;5073916;28;19921;-73
2024/01/09 07:11:48;;;;;;;;;;;;;;;;;;5073831;28;19916;-73
2024/01/09 07:14:14;;;;;;;;;;;;;;;;;;5068129;28;19952;-72
2024/01/09 07:16:40;;;;;;;;;;;;;;;;;;5086633;28;19926;-73
2024/01/09 07:19:07;;;;;;;;;;;;;;;;;;5070149;28;19917;-71
2024/01/09 07:21:33;;;;;;;;;;;;;;;;;;5051344;28;19909;-72
2024/01/09 07:23:59;;;;;;;;;;;;;;;;;;5071064;28;20270;-72
2024/01/09 07:26:25;;;;;;;;;;;;;;;;;;5071598;28;19961;-72
2024/01/09 07:28:51;;;;;;;;;;;;;;;;;;5054111;28;19916;-72
2024/01/09 07:31:18;;;;;;;;;;;;;;;;;;5069141;28;19927;-72
2024/01/09 07:33:44;;;;;;;;;;;;;;;;;;5072918;28;19909;-73
2024/01/09 07:36:10;;;;;;;;;;;;;;;;;;5070925;28;20601;-73
2024/01/09 07:38:36;;;;;;;;;;;;;;;;;;5071594;28;19920;-72
2024/01/09 07:41:02;;;;;;;;;;;;;;;;;;5071945;28;19912;-72
2024/01/09 07:43:29;;;;;;;;;;;;;;;;;;5069342;28;19918;-72
2024/01/09 07:45:55;;;;;;;;;;;;;;;;;;5074041;28;19939;-72
2024/01/09 07:48:21;;;;;;;;;;;;;;;;;;5054726;28;19909;-72
2024/01/09 07:50:47;;;;;;;;;;;;;;;;;;5070526;28;19927;-72
2024/01/09 07:53:13;;;;;;;;;;;;;;;;;;5053365;28;20300;-72
2024/01/09 07:55:40;;;;;;;;;;;;;;;;;;5070292;28;19924;-72
2024/01/09 07:58:06;;;;;;;;;;;;;;;;;;5053237;28;19916;-73
2024/01/09 08:00:33;;;;;;;;;;;;;;;;;;5071196;28;19916;-72
2024/01/09 08:02:59;;;;;;;;;;;;;;;;;;5060960;28;19912;-72
2024/01/09 08:05:25;;;;;;;;;;;;;;;;;;5070791;28;19913;-73
2024/01/09 08:07:51;;;;;;;;;;;;;;;;;;5070975;28;20377;-72
2024/01/09 08:10:17;;;;;;;;;;;;;;;;;;5072271;28;19985;-72
2024/01/09 08:12:44;;;;;;;;;;;;;;;;;;5071306;28;19919;-72
2024/01/09 08:15:10;;;;;;;;;;;;;;;;;;5053343;28;19909;-72
2024/01/09 08:17:36;;;;;;;;;;;;;;;;;;5071390;28;19916;-72
2024/01/09 08:20:03;;;;;;;;;;;;;;;;;;5071837;28;20258;-72
2024/01/09 08:22:29;;;;;;;;;;;;;;;;;;5070960;28;20375;-73
2024/01/09 08:24:55;;;;;;;;;;;;;;;;;;5053668;28;19912;-72
2024/01/09 08:27:22;;;;;;;;;;;;;;;;;;5070476;28;19965;-72
2024/01/09 08:29:48;;;;;;;;;;;;;;;;;;5071110;28;20285;-72
2024/01/09 08:32:16;;;;;;;;;;;;;;;;;;5053752;28;20280;-72
2024/01/09 08:34:42;;;;;;;;;;;;;;;;;;5053853;28;20392;-72
2024/01/09 08:37:09;;;;;;;;;;;;;;;;;;5070660;28;19916;-72
2024/01/09 08:39:35;;;;;;;;;;;;;;;;;;5067652;28;19912;-72
2024/01/09 08:42:01;;;;;;;;;;;;;;;;;;5070738;28;20374;-72
2024/01/09 08:44:27;;;;;;;;;;;;;;;;;;5075541;28;19909;-73
2024/01/09 08:46:53;;;;;;;;;;;;;;;;;;5074867;28;19912;-73
2024/01/09 08:49:20;;;;;;;;;;;;;;;;;;5075684;28;19919;-72
2024/01/09 08:51:46;;;;;;;;;;;;;;;;;;5075369;28;19919;-73
2024/01/09 08:54:12;;;;;;;;;;;;;;;;;;5075495;28;20393;-73
2024/01/09 08:56:39;;;;;;;;;;;;;;;;;;5073642;28;20331;-73
2024/01/09 08:59:07;;;;;;;;;;;;;;;;;;5074690;28;19912;-72
2024/01/09 09:01:35;;;;;;;;;;;;;;;;;;5074080;28;20331;-73
2024/01/09 09:04:02;;;;;;;;;;;;;;;;;;5065975;28;19917;-72
2024/01/09 09:06:28;;;;;;;;;;;;;;;;;;5075191;28;19912;-72
2024/01/09 09:08:54;;;;;;;;;;;;;;;;;;5075130;28;19921;-73
2024/01/09 09:11:21;;;;;;;;;;;;;;;;;;5075122;28;19915;-73
2024/01/09 09:13:47;;;;;;;;;;;;;;;;;;5074767;28;20373;-73
2024/01/09 09:16:16;;;;;;;;;;;;;;;;;;5074308;28;19926;-73
2024/01/09 09:18:44;;;;;;;;;;;;;;;;;;5077503;28;19923;-73
2024/01/09 09:21:10;;;;;;;;;;;;;;;;;;5073377;28;19913;-73
2024/01/09 09:23:39;;;;;;;;;;;;;;;;;;5072148;28;19916;-73
2024/01/09 09:26:05;;;;;;;;;;;;;;;;;;5073402;28;20296;-73
2024/01/09 09:28:31;;;;;;;;;;;;;;;;;;5074648;28;19908;-72
2024/01/09 09:30:58;;;;;;;;;;;;;;;;;;5072378;28;19912;-72
2024/01/09 09:33:27;;;;;;;;;;;;;;;;;;5073639;28;19913;-72
2024/01/09 09:35:53;;;;;;;;;;;;;;;;;;5084978;28;20385;-72
2024/01/09 09:38:19;;;;;;;;;;;;;;;;;;5083379;28;19916;-72
2024/01/09 09:40:45;;;;;;;;;;;;;;;;;;5074120;28;19913;-72
2024/01/09 09:43:11;;;;;;;;;;;;;;;;;;5073173;28;19938;-72
2024/01/09 09:45:38;;;;;;;;;;;;;;;;;;5056100;28;19913;-73
2024/01/09 09:48:04;;;;;;;;;;;;;;;;;;5073278;28;19915;-73
2024/01/09 09:50:30;;;;;;;;;;;;;;;;;;5072313;28;19916;-73
2024/01/09 09:52:57;;;;;;;;;;;;;;;;;;5073895;28;19930;-73
2024/01/09 09:55:23;;;;;;;;;;;;;;;;;;5070941;28;19913;-73
2024/01/09 09:57:49;;;;;;;;;;;;;;;;;;5073869;28;19912;-72
2024/01/09 10:00:15;;;;;;;;;;;;;;;;;;5072726;28;19908;-73
2024/01/09 10:02:42;;;;;;;;;;;;;;;;;;5072780;28;19917;-72
2024/01/09 10:05:12;;;;;;;;;;;;;;;;;;5074133;28;19915;-73
2024/01/09 10:07:38;;;;;;;;;;;;;;;;;;5074355;28;19908;-73
2024/01/09 10:10:05;;;;;;;;;;;;;;;;;;5068150;28;19920;-73
2024/01/09 10:12:31;;;;;;;;;;;;;;;;;;5053865;28;19909;-73
2024/01/09 10:14:57;;;;;;;;;;;;;;;;;;5053755;28;19913;-73
2024/01/09 10:17:24;;;;;;;;;;;;;;;;;;5053657;28;19917;-73
2024/01/09 10:19:50;;;;;;;;;;;;;;;;;;5053907;28;20013;-73
2024/01/09 10:22:16;;;;;;;;;;;;;;;;;;5072357;28;19908;-73
2024/01/09 10:24:42;;;;;;;;;;;;;;;;;;5073703;28;19916;-73
2024/01/09 10:27:08;;;;;;;;;;;;;;;;;;5067124;28;19909;-73
2024/01/09 10:29:34;;;;;;;;;;;;;;;;;;5038410;28;19916;-73
2024/01/09 10:32:01;;;;;;;;;;;;;;;;;;5073607;28;19930;-73
2024/01/09 10:34:27;;;;;;;;;;;;;;;;;;5073404;28;19915;-73
2024/01/09 10:36:55;;;;;;;;;;;;;;;;;;5071542;28;19924;-72
2024/01/09 10:39:21;;;;;;;;;;;;;;;;;;5072679;28;19916;-73
2024/01/09 10:41:48;;;;;;;;;;;;;;;;;;5071637;28;19915;-73
2024/01/09 10:44:14;;;;;;;;;;;;;;;;;;5072882;28;19919;-74
2024/01/09 10:46:40;;;;;;;;;;;;;;;;;;5069957;28;19916;-72
2024/01/09 10:49:06;;;;;;;;;;;;;;;;;;5071820;28;19913;-73
2024/01/09 10:51:32;;;;;;;;;;;;;;;;;;5054740;28;19916;-73
2024/01/09 10:53:58;;;;;;;;;;;;;;;;;;5071966;28;19965;-73
2024/01/09 10:56:25;;;;;;;;;;;;;;;;;;5063451;28;19927;-73
2024/01/09 10:58:51;;;;;;;;;;;;;;;;;;5070851;28;20297;-73
2024/01/09 11:01:17;;;;;;;;;;;;;;;;;;5071773;28;20389;-73
2024/01/09 11:03:43;;;;;;;;;;;;;;;;;;5071377;28;19917;-74
2024/01/09 11:06:10;;;;;;;;;;;;;;;;;;5071363;28;19917;-73
2024/01/09 11:08:36;;;;;;;;;;;;;;;;;;5072298;28;19926;-73
2024/01/09 11:11:02;;;;;;;;;;;;;;;;;;5073434;28;19915;-73
2024/01/09 11:13:28;;;;;;;;;;;;;;;;;;5072968;28;20163;-73
2024/01/09 11:15:55;;;;;;;;;;;;;;;;;;5073025;28;19912;-73
2024/01/09 11:18:22;;;;;;;;;;;;;;;;;;5055071;28;19913;-74
2024/01/09 11:20:48;;;;;;;;;;;;;;;;;;5072816;28;19961;-73
2024/01/09 11:23:14;;;;;;;;;;;;;;;;;;5072172;28;19922;-71
2024/01/09 11:25:41;;;;;;;;;;;;;;;;;;5072774;28;20355;-70
2024/01/09 11:28:07;;;;;;;;;;;;;;;;;;5054941;28;19908;-71
2024/01/09 11:30:33;;;;;;;;;;;;;;;;;;5073026;28;19912;-71
2024/01/09 11:33:00;;;;;;;;;;;;;;;;;;5072500;28;19912;-71
2024/01/09 11:35:27;;;;;;;;;;;;;;;;;;5072417;28;20426;-70
2024/01/09 11:37:55;;;;;;;;;;;;;;;;;;5072209;28;19915;-70
2024/01/09 11:40:24;;;;;;;;;;;;;;;;;;5081163;28;19919;-70
2024/01/09 11:42:50;;;;;;;;;;;;;;;;;;5072215;28;19912;-71
2024/01/09 11:45:16;;;;;;;;;;;;;;;;;;5072499;28;19923;-70
2024/01/09 11:47:42;;;;;;;;;;;;;;;;;;5072191;28;19915;-70
2024/01/09 11:50:09;;;;;;;;;;;;;;;;;;5072566;28;19908;-70
2024/01/09 11:52:35;;;;;;;;;;;;;;;;;;5072116;28;19908;-70
2024/01/09 11:55:02;;;;;;;;;;;;;;;;;;5072279;28;19908;-70
2024/01/09 11:57:28;;;;;;;;;;;;;;;;;;5071893;28;20377;-73
2024/01/09 11:59:54;;;;;;;;;;;;;;;;;;5072363;28;20323;-73
2024/01/09 12:02:20;;;;;;;;;;;;;;;;;;5072265;28;19908;-70
2024/01/09 12:04:46;;;;;;;;;;;;;;;;;;5053379;28;19919;-70
2024/01/09 12:07:13;;;;;;;;;;;;;;;;;;5071765;28;19916;-73
2024/01/09 12:09:39;;;;;;;;;;;;;;;;;;5071559;28;19928;-72
2024/01/09 12:12:05;;;;;;;;;;;;;;;;;;5071690;28;20361;-72
2024/01/09 12:14:31;;;;;;;;;;;;;;;;;;5072122;28;19913;-72
2024/01/09 12:16:57;;;;;;;;;;;;;;;;;;5071344;28;19962;-73
2024/01/09 12:19:23;;;;;;;;;;;;;;;;;;5071893;28;19909;-73
2024/01/09 12:21:50;;;;;;;;;;;;;;;;;;5053057;28;19912;-73
2024/01/09 12:24:16;;;;;;;;;;;;;;;;;;5090250;28;20403;-73
2024/01/09 12:26:43;;;;;;;;;;;;;;;;;;5076276;28;20300;-72
2024/01/09 12:29:10;;;;;;;;;;;;;;;;;;5052007;28;19909;-72
2024/01/09 12:31:37;;;;;;;;;;;;;;;;;;5067475;28;19913;-73
2024/01/09 12:34:06;;;;;;;;;;;;;;;;;;5051956;28;19909;-73
2024/01/09 12:36:32;;;;;;;;;;;;;;;;;;5051609;28;19921;-72
2024/01/09 12:38:58;;;;;;;;;;;;;;;;;;5052061;28;19913;-72
2024/01/09 12:41:24;;;;;;;;;;;;;;;;;;5068234;28;19909;-73
2024/01/09 12:43:53;;;;;;;;;;;;;;;;;;5060749;28;19912;-73
2024/01/09 12:46:21;;;;;;;;;;;;;;;;;;5045386;28;20399;-73
2024/01/09 12:48:47;;;;;;;;;;;;;;;;;;5065190;28;19913;-72
2024/01/09 12:51:13;;;;;;;;;;;;;;;;;;5053150;28;19909;-71
2024/01/09 12:53:40;;;;;;;;;;;;;;;;;;5070172;28;20389;-72
2024/01/09 12:56:06;;;;;;;;;;;;;;;;;;5071411;28;19916;-71
2024/01/09 12:58:32;;;;;;;;;;;;;;;;;;5069008;28;19919;-72
2024/01/09 13:00:58;;;;;;;;;;;;;;;;;;5067501;28;19913;-71
2024/01/09 13:03:24;;;;;;;;;;;;;;;;;;5064585;28;19920;-72
2024/01/09 13:05:51;;;;;;;;;;;;;;;;;;5062451;28;19912;-72
2024/01/09 13:08:17;;;;;;;;;;;;;;;;;;5068646;28;19927;-74
2024/01/09 13:10:43;;;;;;;;;;;;;;;;;;5062466;28;19916;-74
2024/01/09 13:13:09;;;;;;;;;;;;;;;;;;5066117;28;19919;-84
2024/01/09 13:15:36;;;;;;;;;;;;;;;;;;5057625;28;19916;-78
2024/01/09 13:18:02;;;;;;;;;;;;;;;;;;5068591;28;20258;-79
2024/01/09 13:20:29;;;;;;;;;;;;;;;;;;5060768;28;19927;-78
2024/01/09 13:22:55;;;;;;;;;;;;;;;;;;5065591;28;19912;-74
2024/01/09 13:25:21;;;;;;;;;;;;;;;;;;5062284;28;20020;-76
2024/01/09 13:27:49;;;;;;;;;;;;;;;;;;5062440;28;19913;-74
2024/01/09 13:30:16;;;;;;;;;;;;;;;;;;5062126;28;20370;-77
2024/01/09 13:32:42;;;;;;;;;;;;;;;;;;5062714;28;20439;-73
2024/01/09 13:35:09;;;;;;;;;;;;;;;;;;5063768;28;19923;-75
2024/01/09 13:37:35;;;;;;;;;;;;;;;;;;5066121;28;19924;-76
2024/01/09 13:40:02;;;;;;;;;;;;;;;;;;5065627;28;19978;-75
2024/01/09 13:42:30;;;;;;;;;;;;;;;;;;5068552;28;19943;-76
2024/01/09 13:44:56;;;;;;;;;;;;;;;;;;5071995;28;19916;-73
2024/01/09 13:47:24;;;;;;;;;;;;;;;;;;5068398;28;20374;-78
2024/01/09 13:49:50;;;;;;;;;;;;;;;;;;5073547;28;19917;-76
2024/01/09 13:52:16;;;;;;;;;;;;;;;;;;5075513;28;19912;-76
2024/01/09 13:54:42;;;;;;;;;;;;;;;;;;5070520;28;20021;-76
2024/01/09 13:57:11;;;;;;;;;;;;;;;;;;5068252;28;19926;-75
2024/01/09 13:59:39;;;;;;;;;;;;;;;;;;5072306;28;19916;-76
2024/01/09 14:02:06;;;;;;;;;;;;;;;;;;5070665;28;19912;-73
2024/01/09 14:04:32;;;;;;;;;;;;;;;;;;5067809;28;19918;-71
2024/01/09 14:06:58;;;;;;;;;;;;;;;;;;5070865;28;19913;-72
2024/01/09 14:09:25;;;;;;;;;;;;;;;;;;5065080;28;20304;-72
2024/01/09 14:11:51;;;;;;;;;;;;;;;;;;5073194;28;19912;-70
2024/01/09 14:14:20;;;;;;;;;;;;;;;;;;5067892;28;19913;-73
2024/01/09 14:16:46;;;;;;;;;;;;;;;;;;5071305;28;19921;-73
2024/01/09 14:19:12;;;;;;;;;;;;;;;;;;5068625;28;19916;-73
2024/01/09 14:21:39;;;;;;;;;;;;;;;;;;5070082;28;19913;-77
2024/01/09 14:24:05;;;;;;;;;;;;;;;;;;5072392;28;19919;-72
2024/01/09 14:26:31;;;;;;;;;;;;;;;;;;5063701;28;20365;-73
2024/01/09 14:28:57;;;;;;;;;;;;;;;;;;5064078;28;19912;-75
2024/01/09 14:31:24;;;;;;;;;;;;;;;;;;5067093;28;19923;-75
2024/01/09 14:33:50;;;;;;;;;;;;;;;;;;5069465;28;19927;-75
2024/01/09 14:36:16;;;;;;;;;;;;;;;;;;5069759;28;20589;-74
2024/01/09 14:38:42;;;;;;;;;;;;;;;;;;5070886;28;19919;-74
2024/01/09 14:41:10;;;;;;;;;;;;;;;;;;5058850;28;20320;-74
2024/01/09 14:43:36;;;;;;;;;;;;;;;;;;5054452;28;20352;-72
2024/01/09 14:46:02;;;;;;;;;;;;;;;;;;5055901;28;19919;-71
2024/01/09 14:48:28;;;;;;;;;;;;;;;;;;5070914;28;19916;-70
2024/01/09 14:50:55;;;;;;;;;;;;;;;;;;5070959;28;20388;-70
2024/01/09 14:53:21;;;;;;;;;;;;;;;;;;5055507;28;19919;-70
2024/01/09 14:55:47;;;;;;;;;;;;;;;;;;5071115;28;19916;-69
2024/01/09 14:58:14;;;;;;;;;;;;;;;;;;5071741;28;20379;-71
2024/01/09 15:00:40;;;;;;;;;;;;;;;;;;5072622;28;19953;-71
2024/01/09 15:03:06;;;;;;;;;;;;;;;;;;5068119;28;19916;-71
2024/01/09 15:05:32;;;;;;;;;;;;;;;;;;5052982;28;19913;-70
2024/01/09 15:07:58;;;;;;;;;;;;;;;;;;5070083;28;19919;-70
2024/01/09 15:10:24;;;;;;;;;;;;;;;;;;5070921;28;19921;-71
2024/01/09 15:12:51;;;;;;;;;;;;;;;;;;5054787;28;19926;-70
2024/01/09 15:15:17;;;;;;;;;;;;;;;;;;5071646;28;19916;-72
2024/01/09 15:17:44;;;;;;;;;;;;;;;;;;5071241;28;19924;-70
2024/01/09 15:20:11;;;;;;;;;;;;;;;;;;5071425;28;19916;-71
2024/01/09 15:22:37;;;;;;;;;;;;;;;;;;5072255;28;19908;-70
2024/01/09 15:25:03;;;;;;;;;;;;;;;;;;5072338;28;20276;-71
2024/01/09 15:27:29;;;;;;;;;;;;;;;;;;5072414;28;19908;-71
2024/01/09 15:29:55;;;;;;;;;;;;;;;;;;5071321;28;19912;-71
2024/01/09 15:32:22;;;;;;;;;;;;;;;;;;5070394;28;19916;-71
2024/01/09 15:34:48;;;;;;;;;;;;;;;;;;5054660;28;19908;-70
2024/01/09 15:37:14;;;;;;;;;;;;;;;;;;5068825;28;20397;-71
2024/01/09 15:39:40;;;;;;;;;;;;;;;;;;5053436;28;19916;-71
2024/01/09 15:42:06;;;;;;;;;;;;;;;;;;5058827;28;19985;-70
2024/01/09 15:44:33;;;;;;;;;;;;;;;;;;5077141;28;19961;-70
2024/01/09 15:46:59;;;;;;;;;;;;;;;;;;5072260;28;19909;-71
2024/01/09 15:49:26;;;;;;;;;;;;;;;;;;5087198;28;19918;-71
2024/01/09 15:51:53;;;;;;;;;;;;;;;;;;5051287;28;20267;-72
2024/01/09 15:54:19;;;;;;;;;;;;;;;;;;5051949;28;19915;-72
2024/01/09 15:56:45;;;;;;;;;;;;;;;;;;5064311;28;20270;-71
2024/01/09 15:59:12;;;;;;;;;;;;;;;;;;5067629;28;19909;-71
2024/01/09 16:01:38;;;;;;;;;;;;;;;;;;5071009;28;19918;-71
2024/01/09 16:04:06;;;;;;;;;;;;;;;;;;5070725;28;19927;-71
2024/01/09 16:06:32;;;;;;;;;;;;;;;;;;5067258;28;19919;-72
2024/01/09 16:08:58;;;;;;;;;;;;;;;;;;5069808;28;19921;-72
2024/01/09 16:11:24;;;;;;;;;;;;;;;;;;5069980;28;19913;-72
2024/01/09 16:13:51;;;;;;;;;;;;;;;;;;5071538;28;19909;-72
2024/01/09 16:16:17;;;;;;;;;;;;;;;;;;5070526;28;19916;-71
2024/01/09 16:18:43;;;;;;;;;;;;;;;;;;5068972;28;19919;-72
2024/01/09 16:21:09;;;;;;;;;;;;;;;;;;5071175;28;20278;-72
2024/01/09 16:23:36;;;;;;;;;;;;;;;;;;5067677;28;19912;-72
2024/01/09 16:26:02;;;;;;;;;;;;;;;;;;5051838;28;20374;-72
2024/01/09 16:28:28;;;;;;;;;;;;;;;;;;5060312;28;19909;-72
2024/01/09 16:30:54;;;;;;;;;;;;;;;;;;5071040;28;19935;-72
2024/01/09 16:33:20;;;;;;;;;;;;;;;;;;5071455;28;19913;-72
2024/01/09 16:35:47;;;;;;;;;;;;;;;;;;5070855;28;20288;-71
2024/01/09 16:38:13;;;;;;;;;;;;;;;;;;5068185;28;19980;-74